sensor_id;sensor_type;location;lat;lon;timestamp;P1;durP1;ratioP1;P2;durP2;ratioP2
53670;SDS011;39571;48.612;8.088;2023-02-04T10:37:20;8.55;;;5.25;;
53670;SDS011;39571;48.612;8.088;2023-02-04T10:39:46;9.43;;;5.22;;
53670;SDS011;39571;48.612;8.088;2023-02-04T10:42:19;8.88;;;4.57;;
53670;SDS011;39571;48.612;8.088;2023-02-04T10:44:52;8.90;;;4.93;;
53670;SDS011;39571;48.612;8.088;2023-02-04T10:47:19;8.15;;;4.45;;
53670;SDS011;39571;48.612;8.088;2023-02-04T10:49:53;10.15;;;5.18;;
53670;SDS011;39571;48.612;8.088;2023-02-04T10:52:38;7.13;;;3.97;;
53670;SDS011;39571;48.612;8.088;2023-02-04T10:55:07;9.40;;;4.50;;
53670;SDS011;39571;48.612;8.088;2023-02-04T10:57:37;8.90;;;3.50;;
53670;SDS011;39571;48.612;8.088;2023-02-04T11:00:06;8.98;;;4.20;;
53670;SDS011;39571;48.612;8.088;2023-02-04T11:02:56;9.43;;;3.60;;
53670;SDS011;39571;48.612;8.088;2023-02-04T11:05:28;8.98;;;3.05;;
53670;SDS011;39571;48.612;8.088;2023-02-04T11:07:55;8.10;;;3.20;;
53670;SDS011;39571;48.612;8.088;2023-02-04T11:10:21;10.77;;;3.38;;
53670;SDS011;39571;48.612;8.088;2023-02-04T11:20:49;9.27;;;3.23;;
53670;SDS011;39571;48.612;8.088;2023-02-04T11:26:01;9.05;;;3.00;;
53670;SDS011;39571;48.612;8.088;2023-02-04T11:28:47;9.10;;;2.78;;
53670;SDS011;39571;48.612;8.088;2023-02-04T11:31:13;9.63;;;3.03;;
53670;SDS011;39571;48.612;8.088;2023-02-04T11:39:41;8.02;;;2.67;;
53670;SDS011;39571;48.612;8.088;2023-02-04T11:42:22;9.45;;;3.40;;
53670;SDS011;39571;48.612;8.088;2023-02-04T11:44:58;9.02;;;3.13;;
53670;SDS011;39571;48.612;8.088;2023-02-04T11:47:25;8.32;;;3.58;;
53670;SDS011;39571;48.612;8.088;2023-02-04T11:49:53;7.78;;;3.60;;
53670;SDS011;39571;48.612;8.088;2023-02-04T11:52:21;8.18;;;3.35;;
53670;SDS011;39571;48.612;8.088;2023-02-04T11:54:53;6.78;;;3.33;;
53670;SDS011;39571;48.612;8.088;2023-02-04T11:57:22;9.27;;;3.58;;
53670;SDS011;39571;48.612;8.088;2023-02-04T11:59:48;9.85;;;3.40;;
53670;SDS011;39571;48.612;8.088;2023-02-04T12:02:21;8.48;;;3.67;;
53670;SDS011;39571;48.612;8.088;2023-02-04T12:04:55;7.63;;;3.45;;
53670;SDS011;39571;48.612;8.088;2023-02-04T12:07:23;8.93;;;3.53;;
53670;SDS011;39571;48.612;8.088;2023-02-04T12:09:50;10.00;;;2.95;;
53670;SDS011;39571;48.612;8.088;2023-02-04T12:12:26;10.43;;;3.28;;
53670;SDS011;39571;48.612;8.088;2023-02-04T12:14:58;8.23;;;2.90;;
53670;SDS011;39571;48.612;8.088;2023-02-04T12:17:26;9.38;;;2.95;;
53670;SDS011;39571;48.612;8.088;2023-02-04T12:19:51;8.88;;;3.20;;
53670;SDS011;39571;48.612;8.088;2023-02-04T12:22:17;8.98;;;3.10;;
53670;SDS011;39571;48.612;8.088;2023-02-04T12:24:42;9.98;;;3.33;;
53670;SDS011;39571;48.612;8.088;2023-02-04T12:27:08;10.45;;;3.88;;
53670;SDS011;39571;48.612;8.088;2023-02-04T12:29:34;10.68;;;3.75;;
53670;SDS011;39571;48.612;8.088;2023-02-04T12:31:59;14.60;;;5.35;;
53670;SDS011;39571;48.612;8.088;2023-02-04T12:34:24;11.90;;;3.90;;
53670;SDS011;39571;48.612;8.088;2023-02-04T12:36:50;10.43;;;3.70;;
53670;SDS011;39571;48.612;8.088;2023-02-04T12:39:15;12.82;;;3.63;;
53670;SDS011;39571;48.612;8.088;2023-02-04T12:41:40;10.95;;;4.25;;
53670;SDS011;39571;48.612;8.088;2023-02-04T12:44:06;7.65;;;3.47;;
53670;SDS011;39571;48.612;8.088;2023-02-04T12:46:31;10.68;;;3.85;;
53670;SDS011;39571;48.612;8.088;2023-02-04T12:48:56;12.73;;;4.00;;
53670;SDS011;39571;48.612;8.088;2023-02-04T12:51:22;9.60;;;3.65;;
53670;SDS011;39571;48.612;8.088;2023-02-04T12:53:47;8.57;;;3.63;;
53670;SDS011;39571;48.612;8.088;2023-02-04T12:56:13;10.10;;;3.70;;
53670;SDS011;39571;48.612;8.088;2023-02-04T12:58:39;12.85;;;4.50;;
53670;SDS011;39571;48.612;8.088;2023-02-04T13:01:04;11.18;;;3.95;;
53670;SDS011;39571;48.612;8.088;2023-02-04T13:03:30;8.70;;;3.45;;
53670;SDS011;39571;48.612;8.088;2023-02-04T13:05:55;11.27;;;3.47;;
53670;SDS011;39571;48.612;8.088;2023-02-04T13:08:21;12.32;;;3.90;;
53670;SDS011;39571;48.612;8.088;2023-02-04T13:10:46;11.07;;;3.90;;
53670;SDS011;39571;48.612;8.088;2023-02-04T13:13:16;10.57;;;3.78;;
53670;SDS011;39571;48.612;8.088;2023-02-04T13:15:43;11.30;;;4.15;;
53670;SDS011;39571;48.612;8.088;2023-02-04T13:18:08;10.07;;;3.47;;
53670;SDS011;39571;48.612;8.088;2023-02-04T13:20:33;9.45;;;3.40;;
